sensor_id;sensor_type;location;lat;lon;timestamp;P1;durP1;ratioP1;P2;durP2;ratioP2
13311;SDS011;34033;48.672;9.376;2023-11-19T00:00:05;2.27;;;2.07;;
13311;SDS011;34033;48.672;9.376;2023-11-19T00:02:35;2.10;;;1.90;;
13311;SDS011;34033;48.672;9.376;2023-11-19T00:05:01;2.20;;;2.00;;
13311;SDS011;34033;48.672;9.376;2023-11-19T00:07:26;1.87;;;1.77;;
13311;SDS011;34033;48.672;9.376;2023-11-19T00:09:51;2.00;;;1.80;;
13311;SDS011;34033;48.672;9.376;2023-11-19T00:12:17;1.93;;;1.83;;
13311;SDS011;34033;48.672;9.376;2023-11-19T00:14:43;1.67;;;1.57;;
13311;SDS011;34033;48.672;9.376;2023-11-19T00:17:09;5.37;;;1.73;;
13311;SDS011;34033;48.672;9.376;2023-11-19T00:19:34;1.97;;;1.87;;
13311;SDS011;34033;48.672;9.376;2023-11-19T00:22:00;2.00;;;1.90;;
13311;SDS011;34033;48.672;9.376;2023-11-19T00:24:28;1.90;;;1.80;;
13311;SDS011;34033;48.672;9.376;2023-11-19T00:26:55;2.00;;;1.80;;
13311;SDS011;34033;48.672;9.376;2023-11-19T00:29:21;1.80;;;1.70;;
13311;SDS011;34033;48.672;9.376;2023-11-19T00:31:46;2.30;;;1.67;;
13311;SDS011;34033;48.672;9.376;2023-11-19T00:34:12;1.83;;;1.73;;
13311;SDS011;34033;48.672;9.376;2023-11-19T00:36:37;1.90;;;1.77;;
13311;SDS011;34033;48.672;9.376;2023-11-19T00:39:02;2.17;;;2.03;;
13311;SDS011;34033;48.672;9.376;2023-11-19T00:41:28;2.17;;;1.97;;
13311;SDS011;34033;48.672;9.376;2023-11-19T00:43:53;2.10;;;1.90;;
13311;SDS011;34033;48.672;9.376;2023-11-19T00:46:18;2.07;;;1.97;;
13311;SDS011;34033;48.672;9.376;2023-11-19T00:48:43;2.00;;;1.80;;
13311;SDS011;34033;48.672;9.376;2023-11-19T00:51:11;3.27;;;2.20;;
13311;SDS011;34033;48.672;9.376;2023-11-19T00:53:36;2.13;;;2.00;;
13311;SDS011;34033;48.672;9.376;2023-11-19T00:56:02;4.17;;;3.50;;
13311;SDS011;34033;48.672;9.376;2023-11-19T00:58:27;2.30;;;2.10;;
13311;SDS011;34033;48.672;9.376;2023-11-19T01:00:53;2.80;;;2.43;;
13311;SDS011;34033;48.672;9.376;2023-11-19T01:03:18;3.03;;;2.77;;
13311;SDS011;34033;48.672;9.376;2023-11-19T01:05:43;2.23;;;2.03;;
13311;SDS011;34033;48.672;9.376;2023-11-19T01:08:09;1.87;;;1.77;;
13311;SDS011;34033;48.672;9.376;2023-11-19T01:10:36;3.20;;;2.07;;
13311;SDS011;34033;48.672;9.376;2023-11-19T01:13:02;1.83;;;1.73;;
13311;SDS011;34033;48.672;9.376;2023-11-19T01:15:30;1.70;;;1.60;;
13311;SDS011;34033;48.672;9.376;2023-11-19T01:17:56;5.60;;;2.20;;
13311;SDS011;34033;48.672;9.376;2023-11-19T01:20:21;3.40;;;2.30;;
13311;SDS011;34033;48.672;9.376;2023-11-19T01:22:47;1.70;;;1.60;;
13311;SDS011;34033;48.672;9.376;2023-11-19T01:25:13;2.00;;;1.80;;
13311;SDS011;34033;48.672;9.376;2023-11-19T01:27:39;1.60;;;1.50;;
13311;SDS011;34033;48.672;9.376;2023-11-19T01:30:04;3.47;;;1.70;;
13311;SDS011;34033;48.672;9.376;2023-11-19T01:32:31;6.37;;;1.60;;
13311;SDS011;34033;48.672;9.376;2023-11-19T01:34:57;2.07;;;1.70;;
13311;SDS011;34033;48.672;9.376;2023-11-19T01:37:22;1.50;;;1.40;;
13311;SDS011;34033;48.672;9.376;2023-11-19T01:39:48;1.90;;;1.80;;
13311;SDS011;34033;48.672;9.376;2023-11-19T01:42:13;1.77;;;1.67;;
13311;SDS011;34033;48.672;9.376;2023-11-19T01:44:39;1.93;;;1.73;;
13311;SDS011;34033;48.672;9.376;2023-11-19T01:47:04;1.80;;;1.70;;
13311;SDS011;34033;48.672;9.376;2023-11-19T01:49:31;2.17;;;1.70;;
13311;SDS011;34033;48.672;9.376;2023-11-19T01:51:57;1.40;;;1.40;;
13311;SDS011;34033;48.672;9.376;2023-11-19T01:54:24;2.83;;;1.60;;
13311;SDS011;34033;48.672;9.376;2023-11-19T01:56:50;1.77;;;1.67;;
13311;SDS011;34033;48.672;9.376;2023-11-19T01:59:17;1.57;;;1.47;;
13311;SDS011;34033;48.672;9.376;2023-11-19T02:01:43;1.17;;;1.17;;
13311;SDS011;34033;48.672;9.376;2023-11-19T02:04:08;1.30;;;1.20;;
13311;SDS011;34033;48.672;9.376;2023-11-19T02:06:34;0.77;;;0.77;;
13311;SDS011;34033;48.672;9.376;2023-11-19T02:09:01;0.83;;;0.83;;
13311;SDS011;34033;48.672;9.376;2023-11-19T02:11:27;0.60;;;0.60;;
13311;SDS011;34033;48.672;9.376;2023-11-19T02:13:55;1.03;;;0.50;;
13311;SDS011;34033;48.672;9.376;2023-11-19T02:16:21;0.53;;;0.53;;
13311;SDS011;34033;48.672;9.376;2023-11-19T02:18:46;0.60;;;0.60;;
13311;SDS011;34033;48.672;9.376;2023-11-19T02:21:11;0.50;;;0.50;;
13311;SDS011;34033;48.672;9.376;2023-11-19T02:23:39;0.50;;;0.50;;
13311;SDS011;34033;48.672;9.376;2023-11-19T02:26:10;6.13;;;0.63;;
13311;SDS011;34033;48.672;9.376;2023-11-19T02:28:41;0.30;;;0.30;;
13311;SDS011;34033;48.672;9.376;2023-11-19T02:31:08;0.47;;;0.47;;
13311;SDS011;34033;48.672;9.376;2023-11-19T02:33:39;0.70;;;0.70;;
13311;SDS011;34033;48.672;9.376;2023-11-19T02:36:05;0.20;;;0.20;;
13311;SDS011;34033;48.672;9.376;2023-11-19T02:38:32;1.43;;;0.43;;
13311;SDS011;34033;48.672;9.376;2023-11-19T02:40:58;0.40;;;0.40;;
13311;SDS011;34033;48.672;9.376;2023-11-19T02:43:23;0.40;;;0.40;;
13311;SDS011;34033;48.672;9.376;2023-11-19T02:45:49;0.43;;;0.43;;
13311;SDS011;34033;48.672;9.376;2023-11-19T02:48:15;0.23;;;0.23;;
13311;SDS011;34033;48.672;9.376;2023-11-19T02:50:41;0.50;;;0.50;;
13311;SDS011;34033;48.672;9.376;2023-11-19T02:53:07;0.33;;;0.33;;
13311;SDS011;34033;48.672;9.376;2023-11-19T02:55:32;0.30;;;0.30;;
13311;SDS011;34033;48.672;9.376;2023-11-19T02:58:02;0.40;;;0.40;;
13311;SDS011;34033;48.672;9.376;2023-11-19T03:00:34;0.50;;;0.50;;
13311;SDS011;34033;48.672;9.376;2023-11-19T03:03:02;0.33;;;0.33;;
13311;SDS011;34033;48.672;9.376;2023-11-19T03:05:42;0.50;;;0.50;;
13311;SDS011;34033;48.672;9.376;2023-11-19T03:08:09;0.37;;;0.37;;
13311;SDS011;34033;48.672;9.376;2023-11-19T03:10:35;0.30;;;0.30;;
13311;SDS011;34033;48.672;9.376;2023-11-19T03:13:00;0.27;;;0.27;;
13311;SDS011;34033;48.672;9.376;2023-11-19T03:15:27;0.20;;;0.20;;
13311;SDS011;34033;48.672;9.376;2023-11-19T03:17:52;0.27;;;0.27;;
13311;SDS011;34033;48.672;9.376;2023-11-19T03:20:18;0.30;;;0.30;;
13311;SDS011;34033;48.672;9.376;2023-11-19T03:22:43;0.40;;;0.40;;
13311;SDS011;34033;48.672;9.376;2023-11-19T03:25:09;0.20;;;0.20;;
13311;SDS011;34033;48.672;9.376;2023-11-19T03:27:35;0.30;;;0.30;;
13311;SDS011;34033;48.672;9.376;2023-11-19T03:30:02;0.30;;;0.30;;
13311;SDS011;34033;48.672;9.376;2023-11-19T03:32:29;0.30;;;0.30;;
13311;SDS011;34033;48.672;9.376;2023-11-19T03:34:55;0.30;;;0.30;;
13311;SDS011;34033;48.672;9.376;2023-11-19T03:37:21;0.40;;;0.40;;
13311;SDS011;34033;48.672;9.376;2023-11-19T03:39:46;0.20;;;0.20;;
13311;SDS011;34033;48.672;9.376;2023-11-19T03:42:11;0.33;;;0.33;;
13311;SDS011;34033;48.672;9.376;2023-11-19T03:44:38;0.33;;;0.33;;
13311;SDS011;34033;48.672;9.376;2023-11-19T03:47:03;1.33;;;0.30;;
13311;SDS011;34033;48.672;9.376;2023-11-19T03:49:29;0.20;;;0.20;;
13311;SDS011;34033;48.672;9.376;2023-11-19T03:51:54;0.53;;;0.53;;
13311;SDS011;34033;48.672;9.376;2023-11-19T03:54:19;0.23;;;0.17;;
13311;SDS011;34033;48.672;9.376;2023-11-19T03:56:46;0.47;;;0.33;;
13311;SDS011;34033;48.672;9.376;2023-11-19T03:59:11;0.37;;;0.33;;
13311;SDS011;34033;48.672;9.376;2023-11-19T04:01:37;0.20;;;0.20;;
13311;SDS011;34033;48.672;9.376;2023-11-19T04:04:02;0.20;;;0.20;;
13311;SDS011;34033;48.672;9.376;2023-11-19T04:06:28;0.30;;;0.30;;
13311;SDS011;34033;48.672;9.376;2023-11-19T04:08:53;0.40;;;0.40;;
13311;SDS011;34033;48.672;9.376;2023-11-19T04:11:18;0.33;;;0.33;;
13311;SDS011;34033;48.672;9.376;2023-11-19T04:13:44;0.40;;;0.40;;
13311;SDS011;34033;48.672;9.376;2023-11-19T04:16:09;0.20;;;0.20;;
13311;SDS011;34033;48.672;9.376;2023-11-19T04:18:34;0.13;;;0.13;;
13311;SDS011;34033;48.672;9.376;2023-11-19T04:20:59;0.40;;;0.40;;
13311;SDS011;34033;48.672;9.376;2023-11-19T04:23:25;0.40;;;0.40;;
13311;SDS011;34033;48.672;9.376;2023-11-19T04:25:50;0.80;;;0.40;;
13311;SDS011;34033;48.672;9.376;2023-11-19T04:28:15;0.20;;;0.20;;
13311;SDS011;34033;48.672;9.376;2023-11-19T04:30:41;0.20;;;0.20;;
13311;SDS011;34033;48.672;9.376;2023-11-19T04:33:06;0.47;;;0.30;;
13311;SDS011;34033;48.672;9.376;2023-11-19T04:35:32;0.20;;;0.20;;
13311;SDS011;34033;48.672;9.376;2023-11-19T04:37:57;0.10;;;0.10;;
13311;SDS011;34033;48.672;9.376;2023-11-19T04:40:22;0.20;;;0.20;;
13311;SDS011;34033;48.672;9.376;2023-11-19T04:42:48;0.20;;;0.20;;
13311;SDS011;34033;48.672;9.376;2023-11-19T04:45:14;0.20;;;0.20;;
13311;SDS011;34033;48.672;9.376;2023-11-19T04:47:41;0.20;;;0.20;;
13311;SDS011;34033;48.672;9.376;2023-11-19T04:50:06;0.23;;;0.23;;
13311;SDS011;34033;48.672;9.376;2023-11-19T04:52:36;0.30;;;0.30;;
13311;SDS011;34033;48.672;9.376;2023-11-19T04:55:03;0.10;;;0.10;;
13311;SDS011;34033;48.672;9.376;2023-11-19T04:57:28;0.20;;;0.20;;
13311;SDS011;34033;48.672;9.376;2023-11-19T04:59:54;0.20;;;0.20;;
13311;SDS011;34033;48.672;9.376;2023-11-19T05:02:19;0.20;;;0.20;;
13311;SDS011;34033;48.672;9.376;2023-11-19T05:04:44;0.20;;;0.20;;
13311;SDS011;34033;48.672;9.376;2023-11-19T05:07:11;0.10;;;0.10;;
13311;SDS011;34033;48.672;9.376;2023-11-19T05:09:37;0.20;;;0.20;;
13311;SDS011;34033;48.672;9.376;2023-11-19T05:12:02;0.47;;;0.30;;
13311;SDS011;34033;48.672;9.376;2023-11-19T05:14:28;0.17;;;0.17;;
13311;SDS011;34033;48.672;9.376;2023-11-19T05:16:53;0.20;;;0.20;;
13311;SDS011;34033;48.672;9.376;2023-11-19T05:19:18;0.10;;;0.10;;
13311;SDS011;34033;48.672;9.376;2023-11-19T05:21:44;0.20;;;0.20;;
13311;SDS011;34033;48.672;9.376;2023-11-19T05:24:09;0.20;;;0.20;;
13311;SDS011;34033;48.672;9.376;2023-11-19T05:26:35;0.10;;;0.10;;
13311;SDS011;34033;48.672;9.376;2023-11-19T05:29:00;0.10;;;0.10;;
13311;SDS011;34033;48.672;9.376;2023-11-19T05:31:26;0.30;;;0.30;;
13311;SDS011;34033;48.672;9.376;2023-11-19T05:33:51;0.10;;;0.10;;
13311;SDS011;34033;48.672;9.376;2023-11-19T05:36:17;0.17;;;0.17;;
13311;SDS011;34033;48.672;9.376;2023-11-19T05:38:42;0.20;;;0.20;;
13311;SDS011;34033;48.672;9.376;2023-11-19T05:41:09;0.27;;;0.27;;
13311;SDS011;34033;48.672;9.376;2023-11-19T05:43:34;0.10;;;0.10;;
13311;SDS011;34033;48.672;9.376;2023-11-19T05:46:00;0.30;;;0.30;;
13311;SDS011;34033;48.672;9.376;2023-11-19T05:48:26;0.23;;;0.23;;
13311;SDS011;34033;48.672;9.376;2023-11-19T05:50:52;0.27;;;0.27;;
13311;SDS011;34033;48.672;9.376;2023-11-19T05:53:18;0.17;;;0.17;;
13311;SDS011;34033;48.672;9.376;2023-11-19T05:55:44;0.40;;;0.40;;
13311;SDS011;34033;48.672;9.376;2023-11-19T05:58:19;0.27;;;0.27;;
13311;SDS011;34033;48.672;9.376;2023-11-19T06:00:47;0.40;;;0.40;;
13311;SDS011;34033;48.672;9.376;2023-11-19T06:03:12;0.40;;;0.20;;
13311;SDS011;34033;48.672;9.376;2023-11-19T06:05:38;0.30;;;0.30;;
13311;SDS011;34033;48.672;9.376;2023-11-19T06:08:03;0.20;;;0.20;;
13311;SDS011;34033;48.672;9.376;2023-11-19T06:10:29;0.30;;;0.30;;
13311;SDS011;34033;48.672;9.376;2023-11-19T06:12:59;0.60;;;0.60;;
13311;SDS011;34033;48.672;9.376;2023-11-19T06:15:27;1.33;;;0.57;;
13311;SDS011;34033;48.672;9.376;2023-11-19T06:17:53;0.30;;;0.30;;
13311;SDS011;34033;48.672;9.376;2023-11-19T06:20:19;0.20;;;0.20;;
13311;SDS011;34033;48.672;9.376;2023-11-19T06:22:45;0.20;;;0.20;;
13311;SDS011;34033;48.672;9.376;2023-11-19T06:25:11;0.30;;;0.30;;
13311;SDS011;34033;48.672;9.376;2023-11-19T06:27:36;0.20;;;0.20;;
13311;SDS011;34033;48.672;9.376;2023-11-19T06:30:01;0.10;;;0.10;;
13311;SDS011;34033;48.672;9.376;2023-11-19T06:32:27;0.10;;;0.10;;
13311;SDS011;34033;48.672;9.376;2023-11-19T06:34:53;0.10;;;0.10;;
13311;SDS011;34033;48.672;9.376;2023-11-19T06:37:18;0.10;;;0.10;;
13311;SDS011;34033;48.672;9.376;2023-11-19T06:39:44;0.10;;;0.10;;
13311;SDS011;34033;48.672;9.376;2023-11-19T06:42:09;1.50;;;0.20;;
13311;SDS011;34033;48.672;9.376;2023-11-19T06:44:35;0.17;;;0.17;;
13311;SDS011;34033;48.672;9.376;2023-11-19T06:47:00;0.20;;;0.20;;
13311;SDS011;34033;48.672;9.376;2023-11-19T06:49:25;1.03;;;0.30;;
13311;SDS011;34033;48.672;9.376;2023-11-19T06:51:51;0.10;;;0.10;;
13311;SDS011;34033;48.672;9.376;2023-11-19T06:54:16;0.20;;;0.20;;
13311;SDS011;34033;48.672;9.376;2023-11-19T06:56:41;0.27;;;0.27;;
13311;SDS011;34033;48.672;9.376;2023-11-19T06:59:07;0.30;;;0.30;;
13311;SDS011;34033;48.672;9.376;2023-11-19T07:01:36;0.63;;;0.63;;
13311;SDS011;34033;48.672;9.376;2023-11-19T07:04:02;0.60;;;0.60;;
13311;SDS011;34033;48.672;9.376;2023-11-19T07:06:33;0.40;;;0.40;;
13311;SDS011;34033;48.672;9.376;2023-11-19T07:08:59;0.97;;;0.60;;
13311;SDS011;34033;48.672;9.376;2023-11-19T07:11:25;0.70;;;0.70;;
13311;SDS011;34033;48.672;9.376;2023-11-19T07:13:50;0.77;;;0.70;;
13311;SDS011;34033;48.672;9.376;2023-11-19T07:16:15;0.97;;;0.67;;
13311;SDS011;34033;48.672;9.376;2023-11-19T07:18:41;0.50;;;0.50;;
13311;SDS011;34033;48.672;9.376;2023-11-19T07:21:08;0.20;;;0.20;;
13311;SDS011;34033;48.672;9.376;2023-11-19T07:23:35;0.40;;;0.40;;
13311;SDS011;34033;48.672;9.376;2023-11-19T07:26:00;0.67;;;0.27;;
13311;SDS011;34033;48.672;9.376;2023-11-19T07:28:26;1.30;;;0.30;;
13311;SDS011;34033;48.672;9.376;2023-11-19T07:30:53;0.40;;;0.40;;
13311;SDS011;34033;48.672;9.376;2023-11-19T07:33:21;0.20;;;0.20;;
13311;SDS011;34033;48.672;9.376;2023-11-19T07:35:46;0.40;;;0.40;;
13311;SDS011;34033;48.672;9.376;2023-11-19T07:38:11;0.30;;;0.30;;
13311;SDS011;34033;48.672;9.376;2023-11-19T07:40:37;0.30;;;0.30;;
13311;SDS011;34033;48.672;9.376;2023-11-19T07:43:02;1.40;;;0.20;;
13311;SDS011;34033;48.672;9.376;2023-11-19T07:45:27;0.40;;;0.40;;
13311;SDS011;34033;48.672;9.376;2023-11-19T07:47:53;0.20;;;0.20;;
13311;SDS011;34033;48.672;9.376;2023-11-19T07:50:19;0.40;;;0.40;;
13311;SDS011;34033;48.672;9.376;2023-11-19T07:52:45;0.27;;;0.27;;
13311;SDS011;34033;48.672;9.376;2023-11-19T07:55:10;0.20;;;0.20;;
13311;SDS011;34033;48.672;9.376;2023-11-19T07:57:35;0.20;;;0.20;;
13311;SDS011;34033;48.672;9.376;2023-11-19T08:00:01;0.47;;;0.47;;
13311;SDS011;34033;48.672;9.376;2023-11-19T08:02:28;0.50;;;0.50;;
13311;SDS011;34033;48.672;9.376;2023-11-19T08:04:53;0.40;;;0.40;;
13311;SDS011;34033;48.672;9.376;2023-11-19T08:07:20;0.37;;;0.30;;
13311;SDS011;34033;48.672;9.376;2023-11-19T08:09:46;0.30;;;0.30;;
13311;SDS011;34033;48.672;9.376;2023-11-19T08:12:11;0.30;;;0.30;;
13311;SDS011;34033;48.672;9.376;2023-11-19T08:14:39;0.40;;;0.40;;
13311;SDS011;34033;48.672;9.376;2023-11-19T08:17:04;0.60;;;0.60;;
13311;SDS011;34033;48.672;9.376;2023-11-19T08:19:29;0.30;;;0.30;;
13311;SDS011;34033;48.672;9.376;2023-11-19T08:21:55;0.30;;;0.30;;
13311;SDS011;34033;48.672;9.376;2023-11-19T08:24:20;1.97;;;1.60;;
13311;SDS011;34033;48.672;9.376;2023-11-19T08:26:45;1.53;;;0.63;;
13311;SDS011;34033;48.672;9.376;2023-11-19T08:29:11;0.37;;;0.37;;
13311;SDS011;34033;48.672;9.376;2023-11-19T08:31:36;0.40;;;0.40;;
13311;SDS011;34033;48.672;9.376;2023-11-19T08:34:01;0.30;;;0.30;;
13311;SDS011;34033;48.672;9.376;2023-11-19T08:36:27;0.30;;;0.30;;
13311;SDS011;34033;48.672;9.376;2023-11-19T08:38:53;0.47;;;0.47;;
13311;SDS011;34033;48.672;9.376;2023-11-19T08:41:18;0.50;;;0.50;;
13311;SDS011;34033;48.672;9.376;2023-11-19T08:43:44;0.30;;;0.30;;
13311;SDS011;34033;48.672;9.376;2023-11-19T08:46:10;0.40;;;0.40;;
13311;SDS011;34033;48.672;9.376;2023-11-19T08:48:36;0.67;;;0.50;;
13311;SDS011;34033;48.672;9.376;2023-11-19T08:51:02;1.90;;;0.93;;
13311;SDS011;34033;48.672;9.376;2023-11-19T08:53:27;0.50;;;0.50;;
13311;SDS011;34033;48.672;9.376;2023-11-19T08:55:53;0.40;;;0.30;;
13311;SDS011;34033;48.672;9.376;2023-11-19T08:58:18;0.60;;;0.60;;
13311;SDS011;34033;48.672;9.376;2023-11-19T09:00:43;0.97;;;0.50;;
13311;SDS011;34033;48.672;9.376;2023-11-19T09:03:09;0.80;;;0.80;;
13311;SDS011;34033;48.672;9.376;2023-11-19T09:05:34;0.83;;;0.83;;
13311;SDS011;34033;48.672;9.376;2023-11-19T09:08:00;1.13;;;1.00;;
13311;SDS011;34033;48.672;9.376;2023-11-19T09:10:25;1.20;;;1.10;;
13311;SDS011;34033;48.672;9.376;2023-11-19T09:12:52;1.50;;;1.17;;
13311;SDS011;34033;48.672;9.376;2023-11-19T09:15:17;0.40;;;0.40;;
13311;SDS011;34033;48.672;9.376;2023-11-19T09:17:43;0.60;;;0.60;;
13311;SDS011;34033;48.672;9.376;2023-11-19T09:20:08;0.53;;;0.53;;
13311;SDS011;34033;48.672;9.376;2023-11-19T09:22:37;0.80;;;0.80;;
13311;SDS011;34033;48.672;9.376;2023-11-19T09:25:02;0.70;;;0.70;;
13311;SDS011;34033;48.672;9.376;2023-11-19T09:27:30;0.23;;;0.23;;
13311;SDS011;34033;48.672;9.376;2023-11-19T09:29:55;0.27;;;0.20;;
13311;SDS011;34033;48.672;9.376;2023-11-19T09:32:23;0.40;;;0.40;;
13311;SDS011;34033;48.672;9.376;2023-11-19T09:34:48;0.43;;;0.43;;
13311;SDS011;34033;48.672;9.376;2023-11-19T09:37:13;0.60;;;0.50;;
13311;SDS011;34033;48.672;9.376;2023-11-19T09:39:39;0.30;;;0.30;;
13311;SDS011;34033;48.672;9.376;2023-11-19T09:42:08;0.37;;;0.37;;
13311;SDS011;34033;48.672;9.376;2023-11-19T09:44:33;0.50;;;0.50;;
13311;SDS011;34033;48.672;9.376;2023-11-19T09:46:59;0.40;;;0.40;;
13311;SDS011;34033;48.672;9.376;2023-11-19T09:49:24;0.47;;;0.47;;
13311;SDS011;34033;48.672;9.376;2023-11-19T09:51:51;0.33;;;0.33;;
13311;SDS011;34033;48.672;9.376;2023-11-19T09:54:17;0.37;;;0.37;;
13311;SDS011;34033;48.672;9.376;2023-11-19T09:56:42;1.03;;;0.50;;
13311;SDS011;34033;48.672;9.376;2023-11-19T09:59:08;0.47;;;0.47;;
13311;SDS011;34033;48.672;9.376;2023-11-19T10:01:35;0.47;;;0.47;;
13311;SDS011;34033;48.672;9.376;2023-11-19T10:04:02;0.40;;;0.40;;
13311;SDS011;34033;48.672;9.376;2023-11-19T10:06:28;0.30;;;0.30;;
13311;SDS011;34033;48.672;9.376;2023-11-19T10:08:54;0.60;;;0.40;;
13311;SDS011;34033;48.672;9.376;2023-11-19T10:11:20;1.37;;;1.20;;
13311;SDS011;34033;48.672;9.376;2023-11-19T10:13:45;0.57;;;0.57;;
13311;SDS011;34033;48.672;9.376;2023-11-19T10:16:13;0.50;;;0.50;;
13311;SDS011;34033;48.672;9.376;2023-11-19T10:18:45;0.50;;;0.50;;
13311;SDS011;34033;48.672;9.376;2023-11-19T10:21:14;0.40;;;0.40;;
13311;SDS011;34033;48.672;9.376;2023-11-19T10:23:49;1.53;;;0.93;;
13311;SDS011;34033;48.672;9.376;2023-11-19T10:26:16;0.57;;;0.50;;
13311;SDS011;34033;48.672;9.376;2023-11-19T10:28:42;0.43;;;0.43;;
13311;SDS011;34033;48.672;9.376;2023-11-19T10:31:10;0.87;;;0.50;;
13311;SDS011;34033;48.672;9.376;2023-11-19T10:33:36;0.40;;;0.40;;
13311;SDS011;34033;48.672;9.376;2023-11-19T10:36:01;0.40;;;0.40;;
13311;SDS011;34033;48.672;9.376;2023-11-19T10:38:26;1.70;;;0.80;;
13311;SDS011;34033;48.672;9.376;2023-11-19T10:40:52;0.50;;;0.50;;
13311;SDS011;34033;48.672;9.376;2023-11-19T10:43:19;2.23;;;0.73;;
13311;SDS011;34033;48.672;9.376;2023-11-19T10:45:47;0.57;;;0.40;;
13311;SDS011;34033;48.672;9.376;2023-11-19T10:48:13;0.20;;;0.20;;
13311;SDS011;34033;48.672;9.376;2023-11-19T10:50:40;0.43;;;0.43;;
13311;SDS011;34033;48.672;9.376;2023-11-19T10:53:08;0.43;;;0.43;;
13311;SDS011;34033;48.672;9.376;2023-11-19T10:55:38;0.30;;;0.30;;
13311;SDS011;34033;48.672;9.376;2023-11-19T10:58:07;0.60;;;0.60;;
13311;SDS011;34033;48.672;9.376;2023-11-19T11:00:46;0.30;;;0.30;;
13311;SDS011;34033;48.672;9.376;2023-11-19T11:03:18;0.30;;;0.30;;
13311;SDS011;34033;48.672;9.376;2023-11-19T11:05:49;0.33;;;0.33;;
13311;SDS011;34033;48.672;9.376;2023-11-19T11:08:15;0.27;;;0.27;;
13311;SDS011;34033;48.672;9.376;2023-11-19T11:13:22;0.40;;;0.40;;
13311;SDS011;34033;48.672;9.376;2023-11-19T11:15:49;0.68;;;0.60;;
13311;SDS011;34033;48.672;9.376;2023-11-19T11:18:15;0.52;;;0.52;;
13311;SDS011;34033;48.672;9.376;2023-11-19T11:20:44;0.40;;;0.40;;
13311;SDS011;34033;48.672;9.376;2023-11-19T11:37:29;0.30;;;0.30;;
13311;SDS011;34033;48.672;9.376;2023-11-19T11:39:57;0.33;;;0.33;;
13311;SDS011;34033;48.672;9.376;2023-11-19T11:45:00;0.40;;;0.40;;
13311;SDS011;34033;48.672;9.376;2023-11-19T11:57:51;0.20;;;0.20;;
13311;SDS011;34033;48.672;9.376;2023-11-19T12:02:55;0.77;;;0.20;;
13311;SDS011;34033;48.672;9.376;2023-11-19T12:05:21;0.20;;;0.20;;
13311;SDS011;34033;48.672;9.376;2023-11-19T12:07:57;0.20;;;0.20;;
13311;SDS011;34033;48.672;9.376;2023-11-19T12:10:28;0.97;;;0.30;;
13311;SDS011;34033;48.672;9.376;2023-11-19T12:13:01;0.30;;;0.30;;
13311;SDS011;34033;48.672;9.376;2023-11-19T12:15:27;0.57;;;0.30;;
13311;SDS011;34033;48.672;9.376;2023-11-19T12:17:56;0.20;;;0.20;;
13311;SDS011;34033;48.672;9.376;2023-11-19T12:20:23;0.20;;;0.20;;
13311;SDS011;34033;48.672;9.376;2023-11-19T12:22:49;0.50;;;0.20;;
13311;SDS011;34033;48.672;9.376;2023-11-19T12:25:16;0.40;;;0.30;;
13311;SDS011;34033;48.672;9.376;2023-11-19T12:27:49;0.30;;;0.30;;
13311;SDS011;34033;48.672;9.376;2023-11-19T12:30:25;0.50;;;0.50;;
13311;SDS011;34033;48.672;9.376;2023-11-19T12:32:51;0.30;;;0.30;;
13311;SDS011;34033;48.672;9.376;2023-11-19T12:35:20;0.20;;;0.20;;
13311;SDS011;34033;48.672;9.376;2023-11-19T12:37:46;0.20;;;0.20;;
13311;SDS011;34033;48.672;9.376;2023-11-19T12:40:22;0.20;;;0.20;;
13311;SDS011;34033;48.672;9.376;2023-11-19T12:42:49;0.20;;;0.20;;
13311;SDS011;34033;48.672;9.376;2023-11-19T12:45:16;0.17;;;0.17;;
13311;SDS011;34033;48.672;9.376;2023-11-19T12:47:42;0.20;;;0.20;;
13311;SDS011;34033;48.672;9.376;2023-11-19T12:50:09;0.20;;;0.20;;
13311;SDS011;34033;48.672;9.376;2023-11-19T12:52:35;0.20;;;0.20;;
13311;SDS011;34033;48.672;9.376;2023-11-19T12:55:02;0.20;;;0.20;;
13311;SDS011;34033;48.672;9.376;2023-11-19T12:57:48;0.30;;;0.20;;
13311;SDS011;34033;48.672;9.376;2023-11-19T13:00:21;0.27;;;0.27;;
13311;SDS011;34033;48.672;9.376;2023-11-19T13:10:51;0.40;;;0.40;;
13311;SDS011;34033;48.672;9.376;2023-11-19T13:13:18;1.07;;;0.50;;
13311;SDS011;34033;48.672;9.376;2023-11-19T13:15:44;0.10;;;0.10;;
13311;SDS011;34033;48.672;9.376;2023-11-19T13:18:12;0.30;;;0.30;;
13311;SDS011;34033;48.672;9.376;2023-11-19T13:20:38;0.20;;;0.20;;
13311;SDS011;34033;48.672;9.376;2023-11-19T13:23:04;0.20;;;0.20;;
13311;SDS011;34033;48.672;9.376;2023-11-19T13:25:30;0.30;;;0.30;;
13311;SDS011;34033;48.672;9.376;2023-11-19T13:27:57;0.20;;;0.20;;
13311;SDS011;34033;48.672;9.376;2023-11-19T13:30:23;0.27;;;0.27;;
13311;SDS011;34033;48.672;9.376;2023-11-19T13:32:50;0.10;;;0.10;;
13311;SDS011;34033;48.672;9.376;2023-11-19T13:35:16;0.20;;;0.20;;
13311;SDS011;34033;48.672;9.376;2023-11-19T13:37:42;0.20;;;0.20;;
13311;SDS011;34033;48.672;9.376;2023-11-19T13:40:08;0.27;;;0.27;;
13311;SDS011;34033;48.672;9.376;2023-11-19T13:42:43;0.10;;;0.10;;
13311;SDS011;34033;48.672;9.376;2023-11-19T13:45:09;0.30;;;0.30;;
13311;SDS011;34033;48.672;9.376;2023-11-19T13:47:39;0.50;;;0.30;;
13311;SDS011;34033;48.672;9.376;2023-11-19T13:50:10;0.33;;;0.33;;
13311;SDS011;34033;48.672;9.376;2023-11-19T13:52:37;0.20;;;0.20;;
13311;SDS011;34033;48.672;9.376;2023-11-19T13:55:04;0.20;;;0.20;;
13311;SDS011;34033;48.672;9.376;2023-11-19T13:57:34;0.30;;;0.30;;
13311;SDS011;34033;48.672;9.376;2023-11-19T14:00:00;0.20;;;0.20;;
13311;SDS011;34033;48.672;9.376;2023-11-19T14:02:31;0.30;;;0.30;;
13311;SDS011;34033;48.672;9.376;2023-11-19T14:04:56;0.50;;;0.30;;
13311;SDS011;34033;48.672;9.376;2023-11-19T14:07:22;0.30;;;0.30;;
13311;SDS011;34033;48.672;9.376;2023-11-19T14:09:47;0.20;;;0.20;;
13311;SDS011;34033;48.672;9.376;2023-11-19T14:12:13;0.20;;;0.20;;
13311;SDS011;34033;48.672;9.376;2023-11-19T14:14:38;0.43;;;0.23;;
13311;SDS011;34033;48.672;9.376;2023-11-19T14:17:04;0.37;;;0.37;;
13311;SDS011;34033;48.672;9.376;2023-11-19T14:19:30;0.30;;;0.30;;
13311;SDS011;34033;48.672;9.376;2023-11-19T14:21:55;0.20;;;0.20;;
13311;SDS011;34033;48.672;9.376;2023-11-19T14:24:20;0.20;;;0.20;;
13311;SDS011;34033;48.672;9.376;2023-11-19T14:26:47;0.23;;;0.23;;
13311;SDS011;34033;48.672;9.376;2023-11-19T14:29:13;0.27;;;0.27;;
13311;SDS011;34033;48.672;9.376;2023-11-19T14:31:39;0.40;;;0.30;;
13311;SDS011;34033;48.672;9.376;2023-11-19T14:34:05;0.30;;;0.30;;
13311;SDS011;34033;48.672;9.376;2023-11-19T14:36:30;0.30;;;0.30;;
13311;SDS011;34033;48.672;9.376;2023-11-19T14:38:55;0.20;;;0.20;;
13311;SDS011;34033;48.672;9.376;2023-11-19T14:41:22;1.30;;;0.60;;
13311;SDS011;34033;48.672;9.376;2023-11-19T14:43:48;0.20;;;0.20;;
13311;SDS011;34033;48.672;9.376;2023-11-19T14:46:13;0.40;;;0.40;;
13311;SDS011;34033;48.672;9.376;2023-11-19T14:48:38;0.30;;;0.30;;
13311;SDS011;34033;48.672;9.376;2023-11-19T14:51:04;0.30;;;0.30;;
13311;SDS011;34033;48.672;9.376;2023-11-19T14:53:30;0.87;;;0.30;;
13311;SDS011;34033;48.672;9.376;2023-11-19T14:55:55;0.33;;;0.33;;
13311;SDS011;34033;48.672;9.376;2023-11-19T14:58:21;0.27;;;0.27;;
13311;SDS011;34033;48.672;9.376;2023-11-19T15:00:46;0.20;;;0.20;;
13311;SDS011;34033;48.672;9.376;2023-11-19T15:03:12;0.20;;;0.20;;
13311;SDS011;34033;48.672;9.376;2023-11-19T15:05:38;0.20;;;0.20;;
13311;SDS011;34033;48.672;9.376;2023-11-19T15:08:05;0.40;;;0.30;;
13311;SDS011;34033;48.672;9.376;2023-11-19T15:10:30;0.50;;;0.43;;
13311;SDS011;34033;48.672;9.376;2023-11-19T15:12:55;0.30;;;0.20;;
13311;SDS011;34033;48.672;9.376;2023-11-19T15:15:21;0.30;;;0.30;;
13311;SDS011;34033;48.672;9.376;2023-11-19T15:17:47;0.20;;;0.20;;
13311;SDS011;34033;48.672;9.376;2023-11-19T15:20:12;1.03;;;0.40;;
13311;SDS011;34033;48.672;9.376;2023-11-19T15:22:40;0.40;;;0.40;;